createdAt,value
2023-04-22T00:02:14.842Z,6.60
2023-04-22T00:04:47.794Z,7.30
2023-04-22T00:07:20.351Z,6.30
2023-04-22T00:09:52.626Z,7.50
2023-04-22T00:12:25.313Z,7.17
2023-04-22T00:14:57.481Z,6.50
2023-04-22T00:17:29.904Z,6.47
2023-04-22T00:20:02.617Z,6.30
2023-04-22T00:22:36.798Z,6.93
2023-04-22T00:25:10.166Z,6.93
2023-04-22T00:27:42.893Z,6.97
2023-04-22T00:30:16.452Z,6.70
2023-04-22T00:32:49.290Z,6.80
2023-04-22T00:35:21.677Z,7.00
2023-04-22T00:37:53.954Z,6.40
2023-04-22T00:40:28.594Z,6.77
2023-04-22T00:43:04.084Z,7.20
2023-04-22T00:45:38.156Z,7.40
2023-04-22T00:48:11.419Z,7.07
2023-04-22T00:50:44.215Z,8.13
2023-04-22T00:53:17.905Z,7.40
2023-04-22T00:55:50.242Z,7.60
2023-04-22T00:58:27.245Z,7.93
2023-04-22T01:00:59.870Z,8.30
2023-04-22T01:03:34.458Z,8.30
2023-04-22T01:06:07.085Z,8.40
2023-04-22T01:08:41.060Z,8.17
2023-04-22T01:11:13.402Z,9.53
2023-04-22T01:13:45.797Z,8.30
2023-04-22T01:16:18.683Z,8.77
2023-04-22T01:18:53.087Z,8.13
2023-04-22T01:21:25.676Z,7.53
2023-04-22T01:23:58.368Z,8.30
2023-04-22T01:26:30.947Z,8.13
2023-04-22T01:29:05.205Z,8.03
2023-04-22T01:31:39.148Z,8.10
2023-04-22T01:34:13.482Z,8.25
2023-04-22T01:39:17.645Z,9.00
2023-04-22T01:41:50.498Z,8.27
2023-04-22T01:44:22.884Z,8.83
2023-04-22T01:46:55.802Z,8.40
2023-04-22T01:49:28.541Z,9.35
2023-04-22T01:52:01.977Z,8.70
2023-04-22T01:54:37.970Z,8.67
2023-04-22T01:57:14.421Z,8.83
2023-04-22T01:59:47.890Z,9.43
2023-04-22T02:02:20.880Z,7.87
2023-04-22T02:04:53.376Z,9.57
2023-04-22T02:07:26.164Z,8.93
2023-04-22T02:09:58.724Z,10.53
2023-04-22T02:12:31.497Z,9.80
2023-04-22T02:15:04.566Z,9.47
2023-04-22T02:17:38.076Z,8.85
2023-04-22T02:20:14.458Z,10.75
2023-04-22T02:22:47.544Z,9.97
2023-04-22T02:25:21.366Z,10.10
2023-04-22T02:27:55.741Z,10.50
2023-04-22T02:30:29.857Z,9.83
2023-04-22T02:33:02.924Z,10.33
2023-04-22T02:35:36.438Z,11.57
2023-04-22T02:38:09.202Z,11.65
2023-04-22T02:40:42.634Z,10.63
2023-04-22T02:43:15.104Z,9.83
2023-04-22T02:45:47.711Z,10.33
2023-04-22T02:48:20.755Z,11.43
2023-04-22T02:50:53.882Z,11.63
2023-04-22T02:53:27.741Z,12.17
2023-04-22T02:56:00.456Z,11.30
2023-04-22T02:58:33.027Z,10.40
2023-04-22T03:01:06.504Z,11.20
2023-04-22T03:03:39.695Z,10.80
2023-04-22T03:08:44.061Z,10.77
2023-04-22T03:11:16.728Z,11.20
2023-04-22T03:13:49.705Z,10.37
2023-04-22T03:16:24.606Z,11.80
2023-04-22T03:18:58.149Z,11.03
2023-04-22T03:21:32.749Z,11.37
2023-04-22T03:24:06.884Z,11.43
2023-04-22T03:26:40.109Z,11.37
2023-04-22T03:29:14.786Z,11.17
2023-04-22T03:31:48.364Z,10.23
2023-04-22T03:34:20.983Z,10.73
2023-04-22T03:36:53.832Z,11.33
2023-04-22T03:39:26.435Z,11.17
2023-04-22T03:42:02.231Z,11.27
2023-04-22T03:44:35.817Z,12.47
2023-04-22T03:47:10.350Z,11.00
2023-04-22T03:49:48.279Z,11.37
2023-04-22T03:54:59.712Z,10.17
2023-04-22T03:57:33.061Z,12.30
2023-04-22T04:00:08.464Z,12.07
2023-04-22T04:02:47.145Z,12.20
2023-04-22T04:05:21.936Z,12.40
2023-04-22T04:07:54.426Z,12.53
2023-04-22T04:10:29.646Z,12.40
2023-04-22T04:13:02.831Z,12.55
2023-04-22T04:15:38.423Z,12.83
2023-04-22T04:18:11.822Z,11.22
2023-04-22T04:20:44.256Z,11.97
2023-04-22T04:23:17.152Z,12.87
2023-04-22T04:25:50.258Z,12.10
2023-04-22T04:28:23.510Z,11.13
2023-04-22T04:30:55.934Z,12.47
2023-04-22T04:33:28.877Z,12.00
2023-04-22T04:36:02.063Z,12.50
2023-04-22T04:38:40.686Z,12.37
2023-04-22T04:41:14.623Z,13.20
2023-04-22T04:43:53.110Z,12.07
2023-04-22T04:46:37.203Z,10.73
2023-04-22T04:49:12.874Z,11.70
2023-04-22T04:51:58.628Z,12.63
2023-04-22T04:54:31.964Z,11.37
2023-04-22T04:57:10.299Z,12.43
2023-04-22T04:59:43.326Z,11.43
2023-04-22T05:02:16.534Z,12.50
2023-04-22T05:04:50.908Z,12.20
2023-04-22T05:07:23.798Z,14.60
2023-04-22T05:09:57.216Z,12.37
2023-04-22T05:12:30.096Z,11.73
2023-04-22T05:15:03.019Z,12.30
2023-04-22T05:17:36.592Z,11.25
2023-04-22T05:20:10.889Z,11.05
2023-04-22T05:22:46.286Z,11.03
2023-04-22T05:25:19.591Z,10.33
2023-04-22T05:27:59.148Z,9.77
2023-04-22T05:30:35.016Z,10.50
2023-04-22T05:33:08.788Z,10.15
2023-04-22T05:35:41.447Z,9.00
2023-04-22T05:38:13.968Z,8.53
2023-04-22T05:40:46.675Z,7.83
2023-04-22T05:43:21.164Z,7.93
2023-04-22T05:45:59.732Z,7.70
2023-04-22T05:48:34.502Z,7.27
2023-04-22T05:51:09.282Z,7.90
2023-04-22T05:53:42.185Z,7.70
2023-04-22T05:56:16.106Z,7.20
2023-04-22T05:58:48.821Z,7.23
2023-04-22T06:01:25.201Z,8.27
2023-04-22T06:04:03.380Z,7.37
2023-04-22T06:06:38.040Z,7.43
2023-04-22T06:09:11.246Z,7.90
2023-04-22T06:11:46.110Z,7.60
2023-04-22T06:14:18.569Z,7.40
2023-04-22T06:16:53.432Z,7.83
2023-04-22T06:19:26.042Z,7.30
2023-04-22T06:21:58.440Z,6.77
2023-04-22T06:24:30.895Z,6.80
2023-04-22T06:27:06.650Z,8.17
2023-04-22T06:29:39.608Z,7.80
2023-04-22T06:32:12.634Z,8.03
2023-04-22T06:34:49.393Z,8.03
2023-04-22T06:37:22.133Z,7.13
2023-04-22T06:39:54.718Z,8.37
2023-04-22T06:42:50.989Z,7.23
2023-04-22T06:45:23.389Z,7.60
2023-04-22T06:48:16.129Z,8.27
2023-04-22T06:51:02.414Z,7.70
2023-04-22T06:53:35.665Z,7.40
2023-04-22T06:56:09.107Z,7.20
2023-04-22T07:01:13.247Z,8.63
2023-04-22T07:03:46.860Z,7.78
2023-04-22T07:06:20.755Z,6.60
2023-04-22T07:08:56.836Z,7.60
2023-04-22T07:11:31.688Z,7.30
2023-04-22T07:14:08.637Z,6.47
2023-04-22T07:16:41.981Z,7.60
2023-04-22T07:19:14.428Z,7.50
2023-04-22T07:21:47.174Z,7.03
2023-04-22T07:24:19.893Z,7.60
2023-04-22T07:26:52.459Z,6.67
2023-04-22T07:29:25.047Z,7.40
2023-04-22T07:32:05.301Z,6.90
2023-04-22T07:34:45.767Z,6.63
2023-04-22T07:37:20.128Z,6.47
2023-04-22T07:39:52.641Z,6.85
2023-04-22T07:42:27.851Z,6.10
2023-04-22T07:45:00.343Z,6.27
2023-04-22T07:47:39.198Z,6.10
2023-04-22T07:50:14.733Z,6.57
2023-04-22T07:52:47.378Z,6.23
2023-04-22T07:55:19.752Z,5.57
2023-04-22T07:57:52.388Z,5.33
2023-04-22T08:00:25.036Z,5.20
2023-04-22T08:02:59.667Z,5.07
2023-04-22T08:05:33.225Z,5.13
2023-04-22T08:08:06.238Z,5.27
2023-04-22T08:10:41.223Z,5.10
2023-04-22T08:13:15.849Z,5.27
2023-04-22T08:15:49.744Z,4.93
2023-04-22T08:18:22.142Z,5.00
2023-04-22T08:20:54.649Z,4.77
2023-04-22T08:23:30.841Z,5.10
2023-04-22T08:26:04.490Z,4.20
2023-04-22T08:28:37.970Z,4.80
2023-04-22T08:31:12.390Z,4.63
2023-04-22T08:33:44.818Z,4.97
2023-04-22T08:36:18.014Z,4.53
2023-04-22T08:38:53.150Z,4.70
2023-04-22T08:41:26.089Z,5.00
2023-04-22T08:43:59.291Z,4.57
2023-04-22T08:46:32.639Z,4.17
2023-04-22T08:49:05.404Z,4.53
2023-04-22T08:51:40.479Z,4.33
2023-04-22T08:54:13.500Z,4.30
2023-04-22T08:56:48.101Z,3.27
2023-04-22T08:59:22.356Z,3.83
2023-04-22T09:01:59.394Z,3.53
2023-04-22T09:04:32.338Z,3.60
2023-04-22T09:07:06.054Z,3.07
2023-04-22T09:09:40.316Z,3.20
2023-04-22T09:12:13.143Z,3.53
2023-04-22T09:14:47.357Z,3.37
2023-04-22T09:17:30.913Z,3.40
2023-04-22T09:20:07.102Z,3.60
2023-04-22T09:22:49.895Z,4.33
2023-04-22T09:25:23.822Z,4.30
2023-04-22T09:27:57.612Z,3.20
2023-04-22T09:30:32.168Z,5.10
2023-04-22T09:33:06.841Z,4.20
2023-04-22T09:35:41.506Z,3.40
2023-04-22T09:38:15.216Z,3.87
2023-04-22T09:40:47.487Z,2.97
2023-04-22T09:43:22.321Z,3.37
2023-04-22T09:45:54.644Z,3.10
2023-04-22T09:48:27.134Z,2.93
2023-04-22T09:50:59.336Z,3.10
2023-04-22T09:53:38.579Z,4.03
2023-04-22T09:56:11.519Z,3.30
2023-04-22T09:58:46.165Z,3.00
2023-04-22T10:01:22.613Z,2.90
2023-04-22T10:03:57.177Z,3.70
2023-04-22T10:06:32.272Z,3.57
2023-04-22T10:09:06.943Z,3.20
2023-04-22T10:11:42.070Z,3.37
2023-04-22T10:14:15.564Z,3.30
2023-04-22T10:16:53.302Z,3.00
2023-04-22T10:19:30.221Z,3.13
2023-04-22T10:22:05.038Z,3.27
2023-04-22T10:24:42.207Z,3.33
2023-04-22T10:27:15.138Z,3.70
2023-04-22T10:29:50.277Z,3.25
2023-04-22T10:32:29.483Z,3.17
2023-04-22T10:35:16.906Z,3.80
2023-04-22T10:37:53.990Z,3.60
2023-04-22T10:40:26.676Z,3.33
2023-04-22T10:43:03.961Z,3.85
2023-04-22T10:45:38.999Z,3.67
2023-04-22T10:48:11.514Z,3.50
2023-04-22T10:50:47.359Z,3.30
2023-04-22T10:53:41.009Z,3.70
2023-04-22T10:56:21.341Z,3.37
2023-04-22T10:58:58.860Z,3.27
2023-04-22T11:01:38.415Z,3.33
2023-04-22T11:04:27.551Z,3.00
2023-04-22T11:07:17.636Z,3.10
2023-04-22T11:09:53.873Z,3.50
2023-04-22T11:12:46.943Z,3.30
2023-04-22T11:17:56.413Z,3.47
2023-04-22T11:20:30.772Z,3.27
2023-04-22T11:23:12.634Z,2.97
2023-04-22T11:25:45.364Z,3.07
2023-04-22T11:28:19.366Z,3.27
2023-04-22T11:30:53.569Z,3.00
2023-04-22T11:33:26.119Z,3.05
2023-04-22T11:35:58.922Z,3.43
2023-04-22T11:38:31.782Z,3.20
2023-04-22T11:41:05.391Z,3.17
2023-04-22T11:43:46.930Z,2.97
2023-04-22T11:46:29.166Z,2.70
2023-04-22T11:49:16.739Z,3.20
2023-04-22T11:51:59.987Z,2.83
2023-04-22T11:54:37.666Z,3.10
2023-04-22T11:57:14.305Z,2.80
2023-04-22T11:59:58.152Z,2.60
2023-04-22T12:02:31.573Z,2.90
2023-04-22T12:05:05.154Z,2.60
2023-04-22T12:10:11.997Z,2.60
2023-04-22T12:12:44.521Z,3.13
2023-04-22T12:15:18.828Z,2.57
2023-04-22T12:17:53.303Z,3.00
2023-04-22T12:20:25.715Z,2.77
2023-04-22T12:22:59.232Z,3.50
2023-04-22T12:25:34.060Z,3.53
2023-04-22T12:28:06.605Z,3.00
2023-04-22T12:30:39.426Z,2.87
2023-04-22T12:33:12.385Z,2.87
2023-04-22T12:35:47.267Z,3.35
2023-04-22T12:38:19.709Z,2.90
2023-04-22T12:40:52.405Z,3.00
2023-04-22T12:43:24.806Z,3.13
2023-04-22T12:45:57.554Z,4.87
2023-04-22T12:48:30.308Z,2.83
2023-04-22T12:51:03.240Z,2.75
2023-04-22T12:53:37.681Z,3.15
2023-04-22T12:56:10.236Z,2.50
2023-04-22T12:58:42.914Z,2.45
2023-04-22T13:01:15.604Z,2.42
2023-04-22T13:03:53.553Z,2.58
2023-04-22T13:06:27.037Z,2.57
2023-04-22T13:08:59.462Z,2.45
2023-04-22T13:14:46.725Z,2.60
2023-04-22T13:17:19.807Z,2.37
2023-04-22T13:19:52.274Z,2.53
2023-04-22T13:22:24.763Z,2.13
2023-04-22T13:24:57.718Z,2.73
2023-04-22T13:27:30.408Z,2.57
2023-04-22T13:30:04.225Z,2.90
2023-04-22T13:35:09.696Z,2.20
2023-04-22T13:37:42.182Z,2.50
2023-04-22T13:40:15.193Z,2.20
2023-04-22T13:42:49.716Z,3.17
2023-04-22T13:45:22.683Z,3.20
2023-04-22T13:47:57.031Z,2.02
2023-04-22T13:50:29.539Z,2.00
2023-04-22T13:53:05.214Z,2.00
2023-04-22T13:55:39.648Z,2.27
2023-04-22T13:58:12.338Z,2.00
2023-04-22T14:00:46.508Z,2.30
2023-04-22T14:03:19.686Z,2.80
2023-04-22T14:05:53.681Z,2.45
2023-04-22T14:08:27.485Z,2.30
2023-04-22T14:11:00.534Z,2.53
2023-04-22T14:13:33.429Z,2.10
2023-04-22T14:16:09.851Z,2.47
2023-04-22T14:18:45.942Z,2.30
2023-04-22T14:21:20.770Z,1.93
2023-04-22T14:23:53.586Z,1.95
2023-04-22T14:26:26.087Z,1.60
2023-04-22T14:28:58.627Z,2.23
2023-04-22T14:31:31.398Z,2.27
2023-04-22T14:34:03.023Z,2.22
2023-04-22T14:36:35.840Z,2.20
2023-04-22T14:39:08.471Z,1.70
2023-04-22T14:41:42.025Z,2.03
2023-04-22T14:44:15.378Z,2.57
2023-04-22T14:46:47.874Z,2.25
2023-04-22T14:49:21.518Z,2.23
2023-04-22T14:54:25.178Z,1.87
2023-04-22T14:56:58.919Z,2.03
2023-04-22T14:59:31.976Z,1.70
2023-04-22T15:02:05.643Z,1.55
2023-04-22T15:04:38.327Z,1.87
2023-04-22T15:07:11.039Z,1.80
2023-04-22T15:09:44.188Z,1.95
2023-04-22T15:12:17.073Z,1.73
2023-04-22T15:14:51.782Z,1.47
2023-04-22T15:17:25.610Z,1.70
2023-04-22T15:19:58.462Z,1.37
2023-04-22T15:22:30.886Z,1.73
2023-04-22T15:25:04.291Z,4.23
2023-04-22T15:27:37.632Z,1.80
2023-04-22T15:30:11.948Z,1.60
2023-04-22T15:32:44.622Z,1.80
2023-04-22T15:35:17.366Z,1.47
2023-04-22T15:37:49.998Z,1.70
2023-04-22T15:40:22.792Z,1.70
2023-04-22T15:42:55.673Z,1.25
2023-04-22T15:45:28.574Z,2.00
2023-04-22T15:48:01.722Z,1.60
2023-04-22T15:50:36.828Z,1.80
2023-04-22T15:53:11.258Z,1.90
2023-04-22T15:55:44.631Z,2.45
2023-04-22T15:58:18.590Z,1.77
2023-04-22T16:00:51.481Z,1.60
2023-04-22T16:03:24.249Z,1.80
2023-04-22T16:05:57.217Z,1.70
2023-04-22T16:08:29.842Z,1.73
2023-04-22T16:11:02.652Z,1.67
2023-04-22T16:13:35.346Z,2.00
2023-04-22T16:16:08.185Z,1.60
2023-04-22T16:18:44.097Z,2.00
2023-04-22T16:21:16.974Z,1.90
2023-04-22T16:23:49.971Z,2.17
2023-04-22T16:26:22.612Z,1.50
2023-04-22T16:28:55.804Z,1.70
2023-04-22T16:31:28.205Z,1.92
2023-04-22T16:34:02.393Z,1.93
2023-04-22T16:36:34.955Z,1.83
2023-04-22T16:39:07.935Z,1.50
2023-04-22T16:41:41.328Z,1.60
2023-04-22T16:44:15.412Z,1.60
2023-04-22T16:46:47.770Z,2.27
2023-04-22T16:49:20.500Z,2.07
2023-04-22T16:51:53.101Z,2.20
2023-04-22T16:54:26.013Z,1.90
2023-04-22T16:56:58.957Z,1.97
2023-04-22T16:59:32.272Z,2.17
2023-04-22T17:02:04.766Z,2.80
2023-04-22T17:04:38.064Z,5.20
2023-04-22T17:07:11.293Z,13.87
2023-04-22T17:09:44.040Z,14.87
2023-04-22T17:12:16.623Z,20.53
2023-04-22T17:14:49.778Z,25.63
2023-04-22T17:17:24.299Z,18.80
2023-04-22T17:19:57.156Z,9.27
2023-04-22T17:22:30.055Z,6.67
2023-04-22T17:25:03.091Z,6.25
2023-04-22T17:27:35.901Z,6.63
2023-04-22T17:30:10.559Z,5.67
2023-04-22T17:32:43.172Z,6.77
2023-04-22T17:35:16.757Z,6.90
2023-04-22T17:37:49.114Z,7.20
2023-04-22T17:40:22.562Z,9.20
2023-04-22T17:42:54.901Z,6.63
2023-04-22T17:45:27.693Z,5.40
2023-04-22T17:48:00.020Z,4.03
2023-04-22T17:50:35.417Z,4.87
2023-04-22T17:53:07.690Z,4.60
2023-04-22T17:55:40.344Z,4.50
2023-04-22T17:58:12.805Z,3.57
2023-04-22T18:00:46.576Z,4.87
2023-04-22T18:03:20.486Z,5.50
2023-04-22T18:08:25.208Z,9.13
2023-04-22T18:11:02.505Z,9.57
2023-04-22T18:13:35.662Z,5.33
2023-04-22T18:16:09.357Z,4.20
2023-04-22T18:18:42.427Z,3.75
2023-04-22T18:21:15.316Z,3.37
2023-04-22T18:23:48.136Z,2.57
2023-04-22T18:26:20.854Z,3.00
2023-04-22T18:28:53.334Z,3.33
2023-04-22T18:31:26.022Z,4.00
2023-04-22T18:33:58.616Z,4.40
2023-04-22T18:36:31.083Z,5.23
2023-04-22T18:39:06.630Z,5.20
2023-04-22T18:41:40.184Z,5.47
2023-04-22T18:44:12.836Z,5.33
2023-04-22T18:46:45.598Z,6.00
2023-04-22T18:49:17.962Z,6.27
2023-04-22T18:51:50.977Z,6.50
2023-04-22T18:54:24.367Z,5.87
2023-04-22T18:56:58.929Z,7.20
2023-04-22T18:59:31.564Z,7.50
2023-04-22T19:02:05.228Z,8.53
2023-04-22T19:04:39.349Z,7.85
2023-04-22T19:09:44.385Z,16.87
2023-04-22T19:12:19.757Z,26.00
2023-04-22T19:14:54.463Z,18.03
2023-04-22T19:17:27.588Z,21.60
2023-04-22T19:20:00.169Z,23.93
2023-04-22T19:22:32.905Z,33.43
2023-04-22T19:25:06.699Z,30.73
2023-04-22T19:27:39.452Z,24.10
2023-04-22T19:30:15.103Z,23.70
2023-04-22T19:32:47.663Z,21.17
2023-04-22T19:35:20.855Z,20.43
2023-04-22T19:37:53.609Z,17.10
2023-04-22T19:40:26.380Z,15.40
2023-04-22T19:43:00.482Z,14.70
2023-04-22T19:45:33.643Z,14.70
2023-04-22T19:48:07.602Z,14.87
2023-04-22T19:50:43.613Z,16.50
2023-04-22T19:53:17.612Z,15.43
2023-04-22T19:55:50.256Z,14.50
2023-04-22T19:58:24.053Z,17.03
2023-04-22T20:00:57.806Z,26.83
2023-04-22T20:03:31.395Z,14.15
2023-04-22T20:06:05.899Z,13.53
2023-04-22T20:08:42.284Z,12.65
2023-04-22T20:11:15.654Z,13.43
2023-04-22T20:13:49.808Z,14.68
2023-04-22T20:16:23.610Z,15.45
2023-04-22T20:18:56.752Z,14.55
2023-04-22T20:21:31.328Z,13.10
2023-04-22T20:24:06.431Z,14.57
2023-04-22T20:26:40.678Z,15.20
2023-04-22T20:29:13.323Z,14.63
2023-04-22T20:31:47.019Z,14.27
2023-04-22T20:34:20.352Z,15.20
2023-04-22T20:36:55.872Z,14.70
2023-04-22T20:39:30.527Z,15.57
2023-04-22T20:42:04.181Z,14.93
2023-04-22T20:44:36.813Z,14.93
2023-04-22T20:47:09.591Z,14.27
2023-04-22T20:49:43.289Z,15.10
2023-04-22T20:52:16.716Z,15.95
2023-04-22T20:54:55.467Z,14.68
2023-04-22T20:57:29.090Z,14.65
2023-04-22T21:00:02.470Z,15.50
2023-04-22T21:02:38.829Z,15.60
2023-04-22T21:05:15.165Z,15.80
2023-04-22T21:07:53.418Z,15.63
2023-04-22T21:10:27.318Z,14.23
2023-04-22T21:12:59.811Z,15.00
2023-04-22T21:15:33.790Z,13.90
2023-04-22T21:18:08.133Z,14.70
2023-04-22T21:20:46.860Z,14.97
2023-04-22T21:23:24.394Z,16.30
2023-04-22T21:25:58.990Z,14.87
2023-04-22T21:28:31.810Z,15.77
2023-04-22T21:31:07.512Z,16.40
2023-04-22T21:33:40.090Z,16.30
2023-04-22T21:36:13.997Z,17.20
2023-04-22T21:38:46.918Z,16.60
2023-04-22T21:41:20.633Z,17.37
2023-04-22T21:43:52.945Z,18.25
2023-04-22T21:46:26.020Z,17.80
2023-04-22T21:48:58.698Z,17.17
2023-04-22T21:51:31.728Z,18.90
2023-04-22T21:54:04.955Z,18.00
2023-04-22T21:56:38.710Z,19.53
2023-04-22T21:59:11.168Z,19.60
2023-04-22T22:01:43.796Z,19.57
2023-04-22T22:04:16.663Z,20.83
2023-04-22T22:06:50.173Z,21.40
2023-04-22T22:09:25.036Z,20.33
2023-04-22T22:11:57.909Z,19.57
2023-04-22T22:14:30.148Z,20.53
2023-04-22T22:17:02.581Z,19.87
2023-04-22T22:19:37.448Z,19.63
2023-04-22T22:22:10.717Z,18.67
2023-04-22T22:24:43.658Z,19.50
2023-04-22T22:27:16.804Z,17.57
2023-04-22T22:29:51.700Z,16.63
2023-04-22T22:32:24.522Z,17.53
2023-04-22T22:34:56.807Z,18.47
2023-04-22T22:37:29.681Z,16.97
2023-04-22T22:40:03.011Z,17.90
2023-04-22T22:42:36.418Z,18.42
2023-04-22T22:45:10.813Z,17.87
2023-04-22T22:47:43.969Z,17.00
2023-04-22T22:50:16.598Z,17.57
2023-04-22T22:52:49.930Z,16.97
2023-04-22T22:55:23.250Z,18.13
2023-04-22T22:57:55.853Z,17.43
2023-04-22T23:00:28.424Z,17.20
2023-04-22T23:03:01.052Z,18.55
2023-04-22T23:05:36.375Z,15.90
2023-04-22T23:08:09.019Z,17.53
2023-04-22T23:10:43.892Z,16.90
2023-04-22T23:13:16.715Z,16.73
2023-04-22T23:15:49.094Z,18.97
2023-04-22T23:18:22.014Z,17.50
2023-04-22T23:20:55.044Z,18.15
2023-04-22T23:23:29.569Z,19.13
2023-04-22T23:28:35.771Z,17.23
2023-04-22T23:31:10.513Z,18.42
2023-04-22T23:33:46.686Z,18.90
2023-04-22T23:36:22.484Z,19.07
2023-04-22T23:38:57.762Z,18.37
2023-04-22T23:41:30.552Z,17.67
2023-04-22T23:44:04.116Z,19.12
2023-04-22T23:46:37.134Z,19.03
2023-04-22T23:49:09.923Z,18.40
2023-04-22T23:51:42.826Z,19.57
2023-04-22T23:54:16.344Z,20.10
2023-04-22T23:56:51.946Z,19.23
2023-04-22T23:59:25.856Z,19.47
